TTW167 RJNK-RCTP
Flight info
| Callsign | TTW167 |
|---|---|
| Flight time | N/A |
| Altitude | 36000 |
| Route | SONBU3 YME V38 KTE V53 POPPY Y75 IGBOD Y34 HKC Y50 KOSHI A1 DRAKE DRAKE1A |
| Aircraft | A20N/M-SDE2E3FGHIRWXY/LB1 |
Departure
| Time | 2026-05-03 23:42 |
|---|---|
| Airport | Komatsu Airport / JASDF Komatsu Air Base (RJNK) |
Arrival
| Time | N/A |
|---|---|
| Airport | Taiwan Taoyuan International Airport (RCTP) |
| Time | Latitude | Longitude | Altitude | Speed | Heading |
|---|---|---|---|---|---|
| 2026-05-03 22:32 | 36.40146 | 136.41441 | 29 ft | 0 kts | 325° |
| 2026-05-03 23:32 | 36.40132 | 136.41453 | 29 ft | 4 kts | 328° |
| 2026-05-03 23:32 | 36.40109 | 136.41469 | 30 ft | 4 kts | 337° |
| 2026-05-03 23:32 | 36.40083 | 136.41480 | 31 ft | 4 kts | 356° |
| 2026-05-03 23:32 | 36.40061 | 136.41474 | 31 ft | 3 kts | 51° |
| 2026-05-03 23:33 | 36.40056 | 136.41467 | 31 ft | 0 kts | 55° |
| 2026-05-03 23:38 | 36.40058 | 136.41470 | 31 ft | 1 kts | 56° |
| 2026-05-03 23:38 | 36.40069 | 136.41489 | 32 ft | 5 kts | 56° |
| 2026-05-03 23:38 | 36.40102 | 136.41548 | 31 ft | 12 kts | 55° |
| 2026-05-03 23:38 | 36.40153 | 136.41640 | 33 ft | 13 kts | 56° |
| 2026-05-03 23:39 | 36.40202 | 136.41729 | 33 ft | 12 kts | 55° |
| 2026-05-03 23:39 | 36.40216 | 136.41809 | 35 ft | 8 kts | 107° |
| 2026-05-03 23:39 | 36.40187 | 136.41852 | 36 ft | 8 kts | 140° |
| 2026-05-03 23:39 | 36.40128 | 136.41900 | 38 ft | 11 kts | 147° |
| 2026-05-03 23:40 | 36.40071 | 136.41945 | 36 ft | 6 kts | 160° |
| 2026-05-03 23:40 | 36.40039 | 136.41921 | 37 ft | 6 kts | 240° |
| 2026-05-03 23:40 | 36.40037 | 136.41916 | 37 ft | 0 kts | 239° |
| 2026-05-03 23:40 | 36.40034 | 136.41909 | 36 ft | 2 kts | 239° |
| 2026-05-03 23:41 | 36.39973 | 136.41793 | 37 ft | 41 kts | 236° |
| 2026-05-03 23:41 | 36.39687 | 136.41279 | 33 ft | 103 kts | 235° |
| 2026-05-03 23:41 | 36.39173 | 136.40351 | 31 ft | 156 kts | 236° |
| 2026-05-03 23:41 | 36.38551 | 136.39189 | 472 ft | 158 kts | 236° |
| 2026-05-03 23:42 | 36.37971 | 136.38058 | 1045 ft | 155 kts | 238° |
| 2026-05-03 23:42 | 36.37527 | 136.36850 | 1729 ft | 153 kts | 252° |
| 2026-05-03 23:42 | 36.37290 | 136.35497 | 2173 ft | 172 kts | 256° |
| 2026-05-03 23:42 | 36.37016 | 136.33919 | 2373 ft | 203 kts | 255° |
| 2026-05-03 23:43 | 36.36654 | 136.32109 | 2680 ft | 225 kts | 253° |
| 2026-05-03 23:43 | 36.36242 | 136.30205 | 3317 ft | 232 kts | 252° |
| 2026-05-03 23:43 | 36.35806 | 136.28267 | 4066 ft | 236 kts | 252° |
| 2026-05-03 23:43 | 36.35352 | 136.26289 | 4874 ft | 239 kts | 252° |
| 2026-05-03 23:44 | 36.34889 | 136.24294 | 5649 ft | 243 kts | 252° |
| 2026-05-03 23:44 | 36.34415 | 136.22264 | 6417 ft | 247 kts | 251° |
| 2026-05-03 23:44 | 36.33933 | 136.20205 | 7256 ft | 249 kts | 251° |
| 2026-05-03 23:44 | 36.33448 | 136.18141 | 8118 ft | 250 kts | 251° |